Off Topic

[ 745 Threads / 28045 Replies ]

Forum Description: All non DCII, OQ, WF, LW, R$ & BTO related chatter goes here!

Moderator: Sinisstar, yo_sway, dreptu, MrPT!, setherot, JoeMama, Cellan, Rage, KingDan, Sunny1234

Have fun.
    Subject Author Posts/Views Last Post
Lock Icon72 Monthly FRP Exchange[CLOSED]  ... 2 3 dreptu 6/4/2013 74/286311 tinac221 1/18/2016 20:51
Lock Icon78 Player Assistant Program Attachment  ... 2 3 4 truman 4/23/2011 96/429016 Sinisstar 12/31/2012 19:38
Sticky III   PayByCall of Daopay Unavailable in United States gamebtoen 12/24/2012 0/3486 gamebtoen 12/24/2012 02:45
Lock Icon76 Renewed forum rewards Attachment  ... 2 MrPT! 1/1/2012 32/229414 wass613 7/11/2012 17:22
Lock Icon67 New Forum Reward System (FRP)  ... 2 truman 7/26/2011 34/241494 Sinisstar 9/19/2011 14:21
Lock Icon76 A Moderator's Job During Dovo Server Problems... Sinisstar 6/3/2011 0/94416 Sinisstar 7/25/2011 02:41
Lock Icon78 DoVoGame Forum Rules Sinisstar 4/13/2011 0/115569 Sinisstar 4/13/2011 11:58
  Forum Thread   
new   Best site to watch movies free on? New JerryGaming 6/24/2017 0/20 JerryGaming 6/24/2017 08:55
common   another from jersey yehongkun362330 6/23/2017 0/11 yehongkun362330 6/23/2017 20:37
common   Deborah jersey yehongkun362330 6/23/2017 0/7 yehongkun362330 6/23/2017 19:53
common   this feat jersey yehongkun362330 6/23/2017 0/7 yehongkun362330 6/23/2017 19:21
common   Barnsley’s jersey yehongkun362330 6/23/2017 0/8 yehongkun362330 6/23/2017 18:53
common   that was jersey yehongkun362330 6/23/2017 0/9 yehongkun362330 6/23/2017 18:26
common   attempt jersey yehongkun362330 6/23/2017 0/13 yehongkun362330 6/23/2017 00:36
common   grassroots jersey yehongkun362330 6/22/2017 0/9 yehongkun362330 6/22/2017 20:00
common   Stoffel Vandoorne jersey yehongkun362330 6/22/2017 0/8 yehongkun362330 6/22/2017 19:44
common   back jersey yehongkun362330 6/22/2017 0/12 yehongkun362330 6/22/2017 18:37
common   said post jersey yehongkun362330 6/21/2017 0/22 yehongkun362330 6/21/2017 23:48
common   August’s jersey yehongkun362330 6/21/2017 0/19 yehongkun362330 6/21/2017 20:25
common   offering Fifa yehongkun362330 6/21/2017 0/14 yehongkun362330 6/21/2017 19:18
common   seamer and jersey yehongkun362330 6/21/2017 0/17 yehongkun362330 6/21/2017 18:41
common   what his jersey yehongkun362330 6/21/2017 0/21 yehongkun362330 6/21/2017 00:46
common   to speak jersey yehongkun362330 6/20/2017 0/17 yehongkun362330 6/20/2017 23:34
common   would not jersey yehongkun362330 6/20/2017 0/18 yehongkun362330 6/20/2017 19:15
common   Does anybody know this game of Hunter x online? sandrashi 6/20/2017 0/22 sandrashi 6/20/2017 18:58
common   has happened jersey yehongkun362330 6/20/2017 0/16 yehongkun362330 6/20/2017 18:23
common   S9 Blackrock Spire of Petite Warriors Launched! beckettett 6/20/2017 0/19 beckettett 6/20/2017 03:26
common   Online fashion store - Shop clothes, accessories, footwear for Men & Women swati.singh.raj 6/20/2017 0/24 swati.singh.raj 6/20/2017 00:36
common   Why Choosing to Contact Lexmark Printer Tech Support? anthonyscoble12 6/15/2017 0/68 anthonyscoble12 6/15/2017 04:41
common   Bulk SMS Service natasha28oct 6/12/2017 0/56 natasha28oct 6/12/2017 01:46
common   PAN Card Verification Pranalisharma 6/6/2017 0/93 Pranalisharma 6/6/2017 23:39
common   Bulk SMS Wordpress Plugin natasha28oct 6/2/2017 0/89 natasha28oct 6/2/2017 23:11
common   Dragon Ball Z Online Lauraley 5/30/2017 0/74 Lauraley 5/30/2017 20:07
common   Gifts for Fmaily sanaamjad341 5/19/2017 0/142 sanaamjad341 5/19/2017 14:49
common Icon72 Battleships: Blood & Sea, a fighting game beckettett 5/19/2017 0/87 beckettett 5/19/2017 02:55
common   Looking For 10 Best Hoverboards Of 2017 For Gift Someone? Then Visit sh3py.com jhondevi118 5/8/2017 1/144 haileyann038 5/17/2017 12:46
common   شركات تهمك تقدم جميع الخدمات 55786e2e 5/17/2016 12/862 mahaabdelnaby77 5/12/2017 07:45
common   Petite Warriors beckettett 5/12/2017 0/86 beckettett 5/12/2017 02:11
common   Two-factor Authentication with bulk SMS For Magento Platform natasha28oct 5/11/2017 0/90 natasha28oct 5/11/2017 04:14
common Icon65 how do I enable the FM receiver on my iPhone 6 paajee83 5/2/2017 0/130 paajee83 5/2/2017 05:49
common   Microdermabrasion: An Option For The Wrinkles And Acne Scars sadiofirmino 4/28/2017 0/140 sadiofirmino 4/28/2017 02:28
common Icon69 Petite Warriors HD for ios beckettett 4/26/2017 0/108 beckettett 4/26/2017 02:00
common   HOW MANY TYPES OF TRAFFIC ANYONE GET ON THEIR PLATFORM ? romeyramshey 4/22/2017 0/130 romeyramshey 4/22/2017 05:19
common   Winx Dvd Ripper Platinum Free Download Crack &Serial Key Kamreon456 4/22/2017 0/295 Kamreon456 4/22/2017 03:27
common   Download Photoinstrument 7.4 Crack Plus Serial key Free Vers Kamreon456 4/21/2017 0/435 Kamreon456 4/21/2017 23:45
common   Super Mario Bros Game For The Classic NES Image Attachment 793726361772953 4/19/2017 0/135 793726361772953 4/19/2017 23:32
common   Best Guest Posting Tips on Other Blogs stacystone 4/16/2017 0/416 stacystone 4/16/2017 00:37
common   Hunter X Online MMORPG wish you like it lucusking 4/13/2017 0/140 lucusking 4/13/2017 20:35
common   Do you like one piece series game? tayanfinny 4/13/2017 0/180 tayanfinny 4/13/2017 00:41
common   buy fake diplomas, buy a degree certificate. cocolemon0 4/10/2017 0/121 cocolemon0 4/10/2017 22:57
common   buy University of Leicester diploma, buy a fake degree. cocolemon0 4/10/2017 0/122 cocolemon0 4/10/2017 22:49
common   Nikita Whitlock Jersey Jonny123 4/10/2017 0/129 Jonny123 4/10/2017 19:46
common   Jimmy Graham Jersey Jonny123 4/10/2017 0/113 Jonny123 4/10/2017 19:46
common Icon78 Cameron Wake Jersey Jonny123 4/10/2017 0/118 Jonny123 4/10/2017 19:45
common Icon66 Marcus Gilchrist Jersey Jonny123 4/10/2017 0/111 Jonny123 4/10/2017 19:44
common Icon66 Elite Brandon Myers Jersey Jonny123 4/10/2017 0/117 Jonny123 4/10/2017 19:43
common Icon66 Daryl Washington Jersey Jonny123 4/10/2017 0/117 Jonny123 4/10/2017 19:43
common Icon66 Authentic Braxton Miller Jersey Jonny123 4/10/2017 0/115 Jonny123 4/10/2017 19:42
common Icon66 Youth John Riggins Jersey Jonny123 4/10/2017 0/116 Jonny123 4/10/2017 19:41
common   Magento SMS API natasha28oct 4/7/2017 0/142 natasha28oct 4/7/2017 01:35
common Icon66 mmorpg one piece launched the newest us server beckettett 4/6/2017 0/131 beckettett 4/6/2017 02:26
hot Icon75 The Alphabet [Game]  ... 2 3 4 5 6 .. 95 vb0d1o35 4/7/2010 2830/210296 helenachristens 4/1/2017 20:58
common   MSN customer service and its advantages lawyerchico1 3/17/2017 0/284 lawyerchico1 3/17/2017 04:30
common   How can I rank my two factor authentication website? natasha28oct 3/16/2017 0/152 natasha28oct 3/16/2017 04:04
common   Josh Doctson Jersey Jonny123 3/10/2017 0/197 Jonny123 3/10/2017 18:34
common   Elite Isaac Seumalo Jersey Jonny123 3/10/2017 0/296 Jonny123 3/10/2017 18:33
    Type Sort By Time